Arnold, Maryland
Current Conditions -  °F | °C
As of 7:54 PM on Saturday 22 Nov 2014 (Local Time) from KNAK Reporting Station
Clear Clear  
Wind Chill: 38°   Ceiling: Unl
Heat Index: 42°   Visibility: 10mi
Dew Point: 18°   Wind: 6mph
Humidity: 38%   Direction: 180°S
Pressure: 30.3"   Gusts: NA
Location:  39.03°N, 76.51°W
Report Text: KNAK 230054Z AUTO 18005KT 10SM CLR 06/M08 A3030 RMK AO2 SLP260 T00561078
Loading
Personal Weather Stations






























Interactive Weather Map New forecast layout! Learn more

10-Day Weather Forecast

Advertisements
Track Severe Weather on mobile